sensor_id;sensor_type;location;lat;lon;timestamp;pressure;altitude;pressure_sealevel;temperature;humidity
78717;BME280;68045;50.042;14.432;2023-04-03T00:02:34;99028.16;;;4.74;63.70
78717;BME280;68045;50.042;14.432;2023-04-03T00:06:35;99027.16;;;4.75;64.42
78717;BME280;68045;50.042;14.432;2023-04-03T00:10:36;99027.63;;;4.79;63.79
78717;BME280;68045;50.042;14.432;2023-04-03T00:14:37;99023.75;;;4.75;63.06
78717;BME280;68045;50.042;14.432;2023-04-03T00:18:39;99027.06;;;4.68;63.46
78717;BME280;68045;50.042;14.432;2023-04-03T00:22:40;99033.44;;;4.66;64.01
78717;BME280;68045;50.042;14.432;2023-04-03T00:26:42;99029.41;;;4.55;63.63
78717;BME280;68045;50.042;14.432;2023-04-03T00:30:43;99036.09;;;4.58;63.89
78717;BME280;68045;50.042;14.432;2023-04-03T00:34:44;99029.91;;;4.59;64.26
78717;BME280;68045;50.042;14.432;2023-04-03T00:38:45;99026.47;;;4.58;64.04
78717;BME280;68045;50.042;14.432;2023-04-03T00:42:48;99031.22;;;4.55;63.84
78717;BME280;68045;50.042;14.432;2023-04-03T00:46:50;99040.03;;;4.54;63.77
78717;BME280;68045;50.042;14.432;2023-04-03T00:50:52;99036.63;;;4.53;64.90
78717;BME280;68045;50.042;14.432;2023-04-03T00:54:57;99041.91;;;4.45;63.69
78717;BME280;68045;50.042;14.432;2023-04-03T00:59:02;99040.56;;;4.49;63.74
78717;BME280;68045;50.042;14.432;2023-04-03T01:03:05;99041.34;;;4.50;64.08
78717;BME280;68045;50.042;14.432;2023-04-03T01:07:29;99044.47;;;4.53;63.01
78717;BME280;68045;50.042;14.432;2023-04-03T01:11:30;99050.50;;;4.54;62.44
78717;BME280;68045;50.042;14.432;2023-04-03T01:15:33;99053.16;;;4.46;62.52
78717;BME280;68045;50.042;14.432;2023-04-03T01:19:36;99052.84;;;4.40;61.87
78717;BME280;68045;50.042;14.432;2023-04-03T01:27:53;99055.97;;;3.97;61.20
78717;BME280;68045;50.042;14.432;2023-04-03T01:31:57;99068.56;;;3.85;60.22
78717;BME280;68045;50.042;14.432;2023-04-03T01:35:59;99067.41;;;3.79;60.83
78717;BME280;68045;50.042;14.432;2023-04-03T01:40:02;99074.25;;;3.80;60.72
78717;BME280;68045;50.042;14.432;2023-04-03T01:44:04;99067.97;;;3.67;58.65
78717;BME280;68045;50.042;14.432;2023-04-03T01:48:05;99084.75;;;3.64;57.87
78717;BME280;68045;50.042;14.432;2023-04-03T01:52:06;99087.38;;;3.56;57.28
78717;BME280;68045;50.042;14.432;2023-04-03T01:56:08;99089.97;;;3.48;58.14
78717;BME280;68045;50.042;14.432;2023-04-03T02:00:09;99097.00;;;3.39;55.93
78717;BME280;68045;50.042;14.432;2023-04-03T02:04:17;99105.66;;;3.32;55.79
78717;BME280;68045;50.042;14.432;2023-04-03T02:08:18;99107.59;;;3.21;55.09
78717;BME280;68045;50.042;14.432;2023-04-03T02:12:19;99106.75;;;3.05;54.72
78717;BME280;68045;50.042;14.432;2023-04-03T02:16:20;99116.19;;;2.97;55.75
78717;BME280;68045;50.042;14.432;2023-04-03T02:20:23;99114.59;;;3.05;57.05
78717;BME280;68045;50.042;14.432;2023-04-03T02:24:24;99119.94;;;2.95;55.43
78717;BME280;68045;50.042;14.432;2023-04-03T02:28:25;99114.69;;;2.87;55.99
78717;BME280;68045;50.042;14.432;2023-04-03T02:32:26;99112.19;;;2.61;55.89
78717;BME280;68045;50.042;14.432;2023-04-03T02:36:28;99116.22;;;2.47;56.93
78717;BME280;68045;50.042;14.432;2023-04-03T02:40:33;99118.25;;;2.27;56.64
78717;BME280;68045;50.042;14.432;2023-04-03T02:44:34;99119.03;;;2.19;58.37
78717;BME280;68045;50.042;14.432;2023-04-03T02:48:36;99137.00;;;2.05;58.68
78717;BME280;68045;50.042;14.432;2023-04-03T02:52:37;99132.91;;;1.76;59.09
78717;BME280;68045;50.042;14.432;2023-04-03T02:56:39;99133.59;;;1.60;59.53
78717;BME280;68045;50.042;14.432;2023-04-03T03:00:40;99133.84;;;1.49;59.35
78717;BME280;68045;50.042;14.432;2023-04-03T03:04:42;99141.38;;;1.34;59.47
78717;BME280;68045;50.042;14.432;2023-04-03T03:08:43;99146.47;;;1.26;61.05
78717;BME280;68045;50.042;14.432;2023-04-03T03:12:44;99142.84;;;1.19;61.08
78717;BME280;68045;50.042;14.432;2023-04-03T03:16:46;99140.84;;;1.13;61.99
78717;BME280;68045;50.042;14.432;2023-04-03T03:20:54;99147.00;;;1.12;62.12
78717;BME280;68045;50.042;14.432;2023-04-03T03:24:56;99149.91;;;1.09;61.37
78717;BME280;68045;50.042;14.432;2023-04-03T03:28:57;99153.91;;;1.03;61.66
78717;BME280;68045;50.042;14.432;2023-04-03T03:32:58;99158.19;;;0.95;61.27
78717;BME280;68045;50.042;14.432;2023-04-03T03:37:00;99157.81;;;0.90;62.13
78717;BME280;68045;50.042;14.432;2023-04-03T03:41:02;99170.13;;;0.88;61.49
78717;BME280;68045;50.042;14.432;2023-04-03T03:45:06;99155.28;;;0.80;62.26
78717;BME280;68045;50.042;14.432;2023-04-03T03:49:08;99169.59;;;0.84;62.88
78717;BME280;68045;50.042;14.432;2023-04-03T03:53:09;99174.19;;;0.72;62.72
78717;BME280;68045;50.042;14.432;2023-04-03T03:57:11;99165.34;;;0.65;62.64
78717;BME280;68045;50.042;14.432;2023-04-03T04:01:12;99173.16;;;0.55;62.64
78717;BME280;68045;50.042;14.432;2023-04-03T04:05:20;99173.16;;;0.55;63.12
78717;BME280;68045;50.042;14.432;2023-04-03T04:09:21;99170.63;;;0.46;63.40
78717;BME280;68045;50.042;14.432;2023-04-03T04:13:22;99177.75;;;0.44;63.12
78717;BME280;68045;50.042;14.432;2023-04-03T04:17:24;99181.03;;;0.36;63.62
78717;BME280;68045;50.042;14.432;2023-04-03T04:21:26;99190.06;;;0.32;63.61
78717;BME280;68045;50.042;14.432;2023-04-03T04:25:28;99195.81;;;0.26;64.01
78717;BME280;68045;50.042;14.432;2023-04-03T04:29:29;99193.06;;;0.27;63.28
78717;BME280;68045;50.042;14.432;2023-04-03T04:33:36;99192.13;;;0.29;64.15
78717;BME280;68045;50.042;14.432;2023-04-03T04:37:39;99201.44;;;0.21;64.11
78717;BME280;68045;50.042;14.432;2023-04-03T04:41:41;99206.75;;;0.30;63.39
78717;BME280;68045;50.042;14.432;2023-04-03T04:45:43;99210.47;;;0.17;64.29
78717;BME280;68045;50.042;14.432;2023-04-03T04:49:44;99216.19;;;0.21;64.00
78717;BME280;68045;50.042;14.432;2023-04-03T04:53:46;99211.44;;;0.16;64.93
78717;BME280;68045;50.042;14.432;2023-04-03T04:57:50;99217.03;;;0.12;64.03
78717;BME280;68045;50.042;14.432;2023-04-03T05:01:51;99224.25;;;0.18;64.79
78717;BME280;68045;50.042;14.432;2023-04-03T05:05:53;99226.16;;;0.25;64.14
78717;BME280;68045;50.042;14.432;2023-04-03T05:09:54;99224.09;;;0.29;64.23
78717;BME280;68045;50.042;14.432;2023-04-03T05:13:55;99223.97;;;0.31;64.04
78717;BME280;68045;50.042;14.432;2023-04-03T05:17:59;99223.81;;;0.32;63.74
78717;BME280;68045;50.042;14.432;2023-04-03T05:22:00;99221.47;;;0.39;64.13
78717;BME280;68045;50.042;14.432;2023-04-03T05:26:03;99228.97;;;0.42;64.27
78717;BME280;68045;50.042;14.432;2023-04-03T05:30:06;99228.81;;;0.53;63.46
78717;BME280;68045;50.042;14.432;2023-04-03T05:34:09;99229.06;;;0.60;63.52
78717;BME280;68045;50.042;14.432;2023-04-03T05:38:12;99239.28;;;0.71;63.18
78717;BME280;68045;50.042;14.432;2023-04-03T05:42:13;99243.47;;;0.81;63.30
78717;BME280;68045;50.042;14.432;2023-04-03T05:46:17;99252.41;;;0.97;62.96
78717;BME280;68045;50.042;14.432;2023-04-03T05:50:21;99254.03;;;1.07;62.46
78717;BME280;68045;50.042;14.432;2023-04-03T05:54:29;99265.03;;;1.19;61.57
78717;BME280;68045;50.042;14.432;2023-04-03T05:58:57;99269.78;;;1.24;61.33
78717;BME280;68045;50.042;14.432;2023-04-03T06:02:59;99262.38;;;1.29;60.29
78717;BME280;68045;50.042;14.432;2023-04-03T06:07:00;99273.38;;;1.41;60.61
78717;BME280;68045;50.042;14.432;2023-04-03T06:11:01;99275.34;;;1.56;60.78
78717;BME280;68045;50.042;14.432;2023-04-03T06:15:03;99282.44;;;1.64;59.28
78717;BME280;68045;50.042;14.432;2023-04-03T06:19:05;99284.22;;;1.63;58.57
78717;BME280;68045;50.042;14.432;2023-04-03T06:23:07;99291.13;;;1.73;59.08
78717;BME280;68045;50.042;14.432;2023-04-03T06:27:10;99289.88;;;1.77;58.88
78717;BME280;68045;50.042;14.432;2023-04-03T06:31:11;99293.81;;;1.99;58.74
78717;BME280;68045;50.042;14.432;2023-04-03T06:35:12;99288.13;;;2.21;57.83
78717;BME280;68045;50.042;14.432;2023-04-03T06:39:16;99297.78;;;2.29;57.87
78717;BME280;68045;50.042;14.432;2023-04-03T06:43:16;99298.63;;;2.55;56.95
78717;BME280;68045;50.042;14.432;2023-04-03T06:47:18;99304.16;;;2.78;55.59
78717;BME280;68045;50.042;14.432;2023-04-03T06:51:23;99310.56;;;2.92;56.81
78717;BME280;68045;50.042;14.432;2023-04-03T06:55:24;99318.31;;;2.75;54.82
78717;BME280;68045;50.042;14.432;2023-04-03T06:59:25;99320.00;;;2.85;55.30
78717;BME280;68045;50.042;14.432;2023-04-03T07:03:27;99314.84;;;3.01;54.60
78717;BME280;68045;50.042;14.432;2023-04-03T07:07:28;99314.78;;;3.19;54.16
78717;BME280;68045;50.042;14.432;2023-04-03T07:11:29;99317.69;;;3.58;52.95
78717;BME280;68045;50.042;14.432;2023-04-03T07:15:31;99327.22;;;3.83;52.87
78717;BME280;68045;50.042;14.432;2023-04-03T07:19:32;99325.13;;;4.20;52.06
78717;BME280;68045;50.042;14.432;2023-04-03T07:23:33;99322.69;;;4.59;51.07
78717;BME280;68045;50.042;14.432;2023-04-03T07:27:34;99323.78;;;4.81;49.52
78717;BME280;68045;50.042;14.432;2023-04-03T07:31:36;99325.44;;;4.82;49.16
78717;BME280;68045;50.042;14.432;2023-04-03T07:35:37;99333.25;;;4.90;48.89
78717;BME280;68045;50.042;14.432;2023-04-03T07:39:38;99328.22;;;4.80;49.02
78717;BME280;68045;50.042;14.432;2023-04-03T07:43:41;99326.91;;;4.68;48.04
78717;BME280;68045;50.042;14.432;2023-04-03T07:47:42;99325.41;;;4.90;49.79
78717;BME280;68045;50.042;14.432;2023-04-03T07:51:44;99322.09;;;5.04;47.76
78717;BME280;68045;50.042;14.432;2023-04-03T07:55:49;99321.13;;;5.44;47.25
78717;BME280;68045;50.042;14.432;2023-04-03T07:59:52;99323.19;;;5.88;46.39
78717;BME280;68045;50.042;14.432;2023-04-03T08:03:54;99329.13;;;6.13;47.14
78717;BME280;68045;50.042;14.432;2023-04-03T08:07:55;99327.34;;;6.66;44.63
78717;BME280;68045;50.042;14.432;2023-04-03T08:11:56;99329.44;;;6.33;43.24
78717;BME280;68045;50.042;14.432;2023-04-03T08:15:57;99336.91;;;6.44;46.95
78717;BME280;68045;50.042;14.432;2023-04-03T08:19:59;99338.97;;;6.86;42.36
78717;BME280;68045;50.042;14.432;2023-04-03T08:24:01;99338.19;;;7.15;40.91
78717;BME280;68045;50.042;14.432;2023-04-03T08:28:03;99334.38;;;7.48;40.66
78717;BME280;68045;50.042;14.432;2023-04-03T08:32:05;99332.69;;;7.76;39.84
78717;BME280;68045;50.042;14.432;2023-04-03T08:36:17;99331.19;;;8.31;37.57
78717;BME280;68045;50.042;14.432;2023-04-03T08:40:18;99329.22;;;8.55;36.69
78717;BME280;68045;50.042;14.432;2023-04-03T08:48:39;99341.41;;;10.54;33.20
78717;BME280;68045;50.042;14.432;2023-04-03T08:52:51;99342.00;;;10.95;31.54
78717;BME280;68045;50.042;14.432;2023-04-03T08:56:53;99333.81;;;11.23;32.33
78717;BME280;68045;50.042;14.432;2023-04-03T09:01:03;99340.16;;;11.61;31.47
78717;BME280;68045;50.042;14.432;2023-04-03T09:05:13;99341.72;;;11.88;30.70
78717;BME280;68045;50.042;14.432;2023-04-03T09:09:30;99340.16;;;12.69;29.78
78717;BME280;68045;50.042;14.432;2023-04-03T09:17:59;99345.94;;;11.96;28.49
78717;BME280;68045;50.042;14.432;2023-04-03T09:30:36;99340.59;;;9.66;31.90
78717;BME280;68045;50.042;14.432;2023-04-03T09:34:41;99348.41;;;8.76;33.51
78717;BME280;68045;50.042;14.432;2023-04-03T09:38:43;99354.38;;;10.42;31.34
78717;BME280;68045;50.042;14.432;2023-04-03T09:42:44;99358.47;;;11.62;29.78
78717;BME280;68045;50.042;14.432;2023-04-03T09:46:46;99364.44;;;14.42;24.64
78717;BME280;68045;50.042;14.432;2023-04-03T09:55:13;99355.09;;;14.40;24.32
78717;BME280;68045;50.042;14.432;2023-04-03T09:59:15;99356.94;;;14.39;24.79
78717;BME280;68045;50.042;14.432;2023-04-03T10:07:35;99361.75;;;11.64;27.30
78717;BME280;68045;50.042;14.432;2023-04-03T10:11:37;99362.31;;;13.17;25.18
78717;BME280;68045;50.042;14.432;2023-04-03T10:15:44;99364.13;;;19.52;18.82
78717;BME280;68045;50.042;14.432;2023-04-03T10:24:01;99359.97;;;16.45;21.16
78717;BME280;68045;50.042;14.432;2023-04-03T10:41:06;99348.97;;;23.37;13.81
78717;BME280;68045;50.042;14.432;2023-04-03T10:45:24;99345.47;;;23.12;14.11
78717;BME280;68045;50.042;14.432;2023-04-03T10:49:44;99345.06;;;20.36;16.63
78717;BME280;68045;50.042;14.432;2023-04-03T10:54:08;99342.31;;;16.56;19.63
78717;BME280;68045;50.042;14.432;2023-04-03T10:58:34;99342.31;;;15.94;20.96
78717;BME280;68045;50.042;14.432;2023-04-03T11:02:58;99333.41;;;17.83;18.56
78717;BME280;68045;50.042;14.432;2023-04-03T11:07:06;99348.81;;;14.64;22.33
78717;BME280;68045;50.042;14.432;2023-04-03T11:11:13;99332.28;;;12.30;26.13
78717;BME280;68045;50.042;14.432;2023-04-03T11:15:19;99337.50;;;11.03;28.48
78717;BME280;68045;50.042;14.432;2023-04-03T11:23:39;99339.09;;;15.28;22.21
78717;BME280;68045;50.042;14.432;2023-04-03T11:27:48;99335.75;;;14.86;22.92
78717;BME280;68045;50.042;14.432;2023-04-03T11:36:44;99322.94;;;11.96;25.82
78717;BME280;68045;50.042;14.432;2023-04-03T11:40:47;99325.47;;;9.94;28.76
78717;BME280;68045;50.042;14.432;2023-04-03T11:44:48;99320.84;;;9.48;30.36
78717;BME280;68045;50.042;14.432;2023-04-03T11:48:50;99309.81;;;9.25;31.03
78717;BME280;68045;50.042;14.432;2023-04-03T11:56:52;99300.75;;;12.29;26.36
78717;BME280;68045;50.042;14.432;2023-04-03T12:00:59;99302.44;;;11.92;26.15
78717;BME280;68045;50.042;14.432;2023-04-03T12:05:37;99301.72;;;11.65;26.83
78717;BME280;68045;50.042;14.432;2023-04-03T12:17:59;99291.50;;;8.75;29.51
78717;BME280;68045;50.042;14.432;2023-04-03T12:27:44;99280.94;;;16.51;20.41
78717;BME280;68045;50.042;14.432;2023-04-03T12:36:13;99290.44;;;13.07;22.50
78717;BME280;68045;50.042;14.432;2023-04-03T12:44:42;99279.38;;;14.72;21.85
78717;BME280;68045;50.042;14.432;2023-04-03T12:48:49;99277.03;;;13.39;22.22
78717;BME280;68045;50.042;14.432;2023-04-03T12:52:56;99271.22;;;11.17;24.52
78717;BME280;68045;50.042;14.432;2023-04-03T12:57:19;99277.34;;;10.98;26.89
78717;BME280;68045;50.042;14.432;2023-04-03T13:01:25;99280.03;;;10.85;27.64
78717;BME280;68045;50.042;14.432;2023-04-03T13:05:28;99274.75;;;9.24;29.37
78717;BME280;68045;50.042;14.432;2023-04-03T13:09:34;99269.84;;;8.80;30.47
78717;BME280;68045;50.042;14.432;2023-04-03T13:13:35;99279.22;;;8.33;31.92
78717;BME280;68045;50.042;14.432;2023-04-03T13:17:39;99263.41;;;7.84;31.47
78717;BME280;68045;50.042;14.432;2023-04-03T13:21:43;99276.75;;;7.82;32.10
78717;BME280;68045;50.042;14.432;2023-04-03T13:26:18;99272.22;;;8.19;32.14
78717;BME280;68045;50.042;14.432;2023-04-03T13:34:35;99271.44;;;7.61;32.36
78717;BME280;68045;50.042;14.432;2023-04-03T13:38:38;99263.00;;;7.65;32.97
78717;BME280;68045;50.042;14.432;2023-04-03T13:42:40;99260.16;;;7.46;31.60
78717;BME280;68045;50.042;14.432;2023-04-03T13:46:41;99265.13;;;7.55;32.46
78717;BME280;68045;50.042;14.432;2023-04-03T13:51:05;99265.22;;;7.83;31.63
78717;BME280;68045;50.042;14.432;2023-04-03T13:59:24;99254.31;;;7.29;34.51
78717;BME280;68045;50.042;14.432;2023-04-03T14:07:41;99250.47;;;6.95;33.69
78717;BME280;68045;50.042;14.432;2023-04-03T14:11:42;99258.34;;;6.95;33.38
78717;BME280;68045;50.042;14.432;2023-04-03T14:15:45;99259.84;;;7.34;31.92
78717;BME280;68045;50.042;14.432;2023-04-03T14:19:47;99259.34;;;7.45;30.99
78717;BME280;68045;50.042;14.432;2023-04-03T14:23:49;99252.97;;;7.18;32.14
78717;BME280;68045;50.042;14.432;2023-04-03T14:27:51;99244.19;;;7.26;33.09
78717;BME280;68045;50.042;14.432;2023-04-03T14:31:52;99245.03;;;7.26;33.19
78717;BME280;68045;50.042;14.432;2023-04-03T14:35:53;99251.53;;;7.15;32.06
78717;BME280;68045;50.042;14.432;2023-04-03T14:39:59;99255.00;;;7.01;31.73
78717;BME280;68045;50.042;14.432;2023-04-03T14:44:00;99255.53;;;6.82;33.25
78717;BME280;68045;50.042;14.432;2023-04-03T14:48:02;99260.88;;;6.59;32.46
78717;BME280;68045;50.042;14.432;2023-04-03T14:52:03;99258.06;;;6.08;32.78
78717;BME280;68045;50.042;14.432;2023-04-03T14:56:26;99261.53;;;6.23;33.17
78717;BME280;68045;50.042;14.432;2023-04-03T15:00:28;99263.34;;;6.23;34.45
78717;BME280;68045;50.042;14.432;2023-04-03T15:04:29;99258.69;;;6.10;34.81
78717;BME280;68045;50.042;14.432;2023-04-03T15:08:30;99258.44;;;5.74;33.95
78717;BME280;68045;50.042;14.432;2023-04-03T15:12:31;99262.94;;;5.65;34.62
78717;BME280;68045;50.042;14.432;2023-04-03T15:16:32;99263.09;;;5.33;35.87
78717;BME280;68045;50.042;14.432;2023-04-03T15:20:33;99267.38;;;5.57;35.70
78717;BME280;68045;50.042;14.432;2023-04-03T15:24:34;99272.47;;;5.58;36.33
78717;BME280;68045;50.042;14.432;2023-04-03T15:28:42;99272.38;;;5.43;36.50
78717;BME280;68045;50.042;14.432;2023-04-03T15:32:44;99271.09;;;5.39;36.31
78717;BME280;68045;50.042;14.432;2023-04-03T15:36:45;99269.22;;;5.48;36.80
78717;BME280;68045;50.042;14.432;2023-04-03T15:40:46;99270.09;;;5.40;36.00
78717;BME280;68045;50.042;14.432;2023-04-03T15:44:50;99263.47;;;5.30;35.20
78717;BME280;68045;50.042;14.432;2023-04-03T15:48:51;99281.47;;;5.24;34.78
78717;BME280;68045;50.042;14.432;2023-04-03T15:52:55;99276.97;;;5.02;35.54
78717;BME280;68045;50.042;14.432;2023-04-03T15:56:58;99271.13;;;4.92;36.74
78717;BME280;68045;50.042;14.432;2023-04-03T16:01:00;99286.13;;;4.98;37.56
78717;BME280;68045;50.042;14.432;2023-04-03T16:05:01;99287.63;;;4.92;36.93
78717;BME280;68045;50.042;14.432;2023-04-03T16:09:02;99285.38;;;4.81;36.96
78717;BME280;68045;50.042;14.432;2023-04-03T16:13:08;99289.81;;;4.73;37.34
78717;BME280;68045;50.042;14.432;2023-04-03T16:17:09;99279.34;;;4.64;37.08
78717;BME280;68045;50.042;14.432;2023-04-03T16:21:10;99286.25;;;4.65;37.08
78717;BME280;68045;50.042;14.432;2023-04-03T16:25:11;99288.84;;;4.74;37.95
78717;BME280;68045;50.042;14.432;2023-04-03T16:29:12;99295.72;;;4.66;38.73
78717;BME280;68045;50.042;14.432;2023-04-03T16:33:13;99297.22;;;4.53;37.63
78717;BME280;68045;50.042;14.432;2023-04-03T16:37:16;99298.34;;;4.50;38.65
78717;BME280;68045;50.042;14.432;2023-04-03T16:41:17;99291.50;;;4.41;38.78
78717;BME280;68045;50.042;14.432;2023-04-03T16:45:18;99298.84;;;4.46;38.30
78717;BME280;68045;50.042;14.432;2023-04-03T16:49:23;99297.53;;;4.41;38.33
78717;BME280;68045;50.042;14.432;2023-04-03T16:53:24;99298.19;;;4.35;39.01
78717;BME280;68045;50.042;14.432;2023-04-03T16:57:25;99303.59;;;4.26;38.95
78717;BME280;68045;50.042;14.432;2023-04-03T17:07:07;99294.44;;;4.13;40.59
78717;BME280;68045;50.042;14.432;2023-04-03T17:27:49;99300.91;;;3.69;41.57
78717;BME280;68045;50.042;14.432;2023-04-03T17:31:50;99309.56;;;3.61;41.44
78717;BME280;68045;50.042;14.432;2023-04-03T17:35:51;99306.59;;;3.56;41.02
78717;BME280;68045;50.042;14.432;2023-04-03T17:39:52;99303.81;;;3.57;41.32
78717;BME280;68045;50.042;14.432;2023-04-03T17:43:53;99308.03;;;3.50;41.25
78717;BME280;68045;50.042;14.432;2023-04-03T17:47:57;99294.34;;;3.48;40.95
78717;BME280;68045;50.042;14.432;2023-04-03T17:51:58;99297.94;;;3.47;42.24
78717;BME280;68045;50.042;14.432;2023-04-03T17:56:05;99306.75;;;3.54;42.28
78717;BME280;68045;50.042;14.432;2023-04-03T18:00:06;99306.94;;;3.61;41.63
78717;BME280;68045;50.042;14.432;2023-04-03T18:04:13;99313.59;;;3.47;41.56
78717;BME280;68045;50.042;14.432;2023-04-03T18:08:14;99319.28;;;3.43;42.43
78717;BME280;68045;50.042;14.432;2023-04-03T18:12:16;99314.88;;;3.43;42.43
78717;BME280;68045;50.042;14.432;2023-04-03T18:16:17;99328.44;;;3.55;43.21
78717;BME280;68045;50.042;14.432;2023-04-03T18:20:18;99312.97;;;3.53;42.30
78717;BME280;68045;50.042;14.432;2023-04-03T18:24:21;99321.59;;;3.54;43.54
78717;BME280;68045;50.042;14.432;2023-04-03T18:28:22;99320.28;;;3.58;42.77
78717;BME280;68045;50.042;14.432;2023-04-03T18:32:23;99316.03;;;3.49;42.31
78717;BME280;68045;50.042;14.432;2023-04-03T18:36:25;99317.97;;;3.39;42.42
78717;BME280;68045;50.042;14.432;2023-04-03T18:40:26;99318.72;;;3.31;43.25
78717;BME280;68045;50.042;14.432;2023-04-03T18:44:30;99330.75;;;3.24;43.16
78717;BME280;68045;50.042;14.432;2023-04-03T18:48:33;99328.47;;;3.21;43.41
78717;BME280;68045;50.042;14.432;2023-04-03T18:52:34;99332.88;;;3.20;43.93
78717;BME280;68045;50.042;14.432;2023-04-03T18:56:35;99328.94;;;3.16;43.41
78717;BME280;68045;50.042;14.432;2023-04-03T19:00:37;99328.81;;;3.18;43.83
78717;BME280;68045;50.042;14.432;2023-04-03T19:04:38;99338.44;;;3.17;44.55
78717;BME280;68045;50.042;14.432;2023-04-03T19:08:39;99327.00;;;3.18;44.28
78717;BME280;68045;50.042;14.432;2023-04-03T19:12:40;99342.19;;;3.23;44.70
78717;BME280;68045;50.042;14.432;2023-04-03T19:16:41;99328.31;;;3.22;43.74
78717;BME280;68045;50.042;14.432;2023-04-03T19:20:42;99339.91;;;3.20;44.38
78717;BME280;68045;50.042;14.432;2023-04-03T19:24:43;99335.47;;;3.12;44.51
78717;BME280;68045;50.042;14.432;2023-04-03T19:28:44;99331.22;;;3.11;45.81
78717;BME280;68045;50.042;14.432;2023-04-03T19:32:48;99340.34;;;3.15;45.54
78717;BME280;68045;50.042;14.432;2023-04-03T19:36:49;99340.06;;;3.18;46.50
78717;BME280;68045;50.042;14.432;2023-04-03T19:40:51;99333.88;;;3.19;45.60
78717;BME280;68045;50.042;14.432;2023-04-03T19:44:52;99338.91;;;3.21;45.42
78717;BME280;68045;50.042;14.432;2023-04-03T19:48:53;99344.94;;;3.21;46.06
78717;BME280;68045;50.042;14.432;2023-04-03T19:52:54;99342.19;;;3.23;45.47
78717;BME280;68045;50.042;14.432;2023-04-03T19:56:56;99345.59;;;3.23;46.34
78717;BME280;68045;50.042;14.432;2023-04-03T20:00:57;99345.31;;;3.26;46.38
78717;BME280;68045;50.042;14.432;2023-04-03T20:04:58;99339.75;;;3.29;46.37
78717;BME280;68045;50.042;14.432;2023-04-03T20:08:59;99342.97;;;3.15;46.63
78717;BME280;68045;50.042;14.432;2023-04-03T20:13:01;99344.25;;;3.11;45.82
78717;BME280;68045;50.042;14.432;2023-04-03T20:17:04;99343.50;;;2.93;48.04
78717;BME280;68045;50.042;14.432;2023-04-03T20:21:05;99343.13;;;2.88;48.33
78717;BME280;68045;50.042;14.432;2023-04-03T20:25:09;99343.00;;;2.89;48.36
78717;BME280;68045;50.042;14.432;2023-04-03T20:29:12;99341.97;;;2.82;48.17
78717;BME280;68045;50.042;14.432;2023-04-03T20:33:14;99341.81;;;2.84;49.07
78717;BME280;68045;50.042;14.432;2023-04-03T20:37:15;99347.53;;;2.87;48.23
78717;BME280;68045;50.042;14.432;2023-04-03T20:41:20;99346.75;;;2.95;48.70
78717;BME280;68045;50.042;14.432;2023-04-03T20:45:22;99340.56;;;2.96;48.95
78717;BME280;68045;50.042;14.432;2023-04-03T20:49:24;99331.06;;;2.87;49.42
78717;BME280;68045;50.042;14.432;2023-04-03T20:53:25;99329.59;;;2.84;49.31
78717;BME280;68045;50.042;14.432;2023-04-03T20:57:26;99329.97;;;2.89;48.64
78717;BME280;68045;50.042;14.432;2023-04-03T21:01:27;99331.41;;;2.84;49.55
78717;BME280;68045;50.042;14.432;2023-04-03T21:05:28;99328.75;;;2.75;50.63
78717;BME280;68045;50.042;14.432;2023-04-03T21:19:13;99329.59;;;2.58;49.73
78717;BME280;68045;50.042;14.432;2023-04-03T21:23:15;99327.09;;;2.48;48.70
78717;BME280;68045;50.042;14.432;2023-04-03T21:27:17;99326.56;;;2.45;49.67
78717;BME280;68045;50.042;14.432;2023-04-03T21:31:19;99325.28;;;2.49;50.15
78717;BME280;68045;50.042;14.432;2023-04-03T21:35:20;99322.03;;;2.47;50.08
78717;BME280;68045;50.042;14.432;2023-04-03T21:39:21;99335.72;;;2.49;49.58
78717;BME280;68045;50.042;14.432;2023-04-03T21:43:23;99325.59;;;2.46;50.43
78717;BME280;68045;50.042;14.432;2023-04-03T21:47:24;99320.97;;;2.58;49.88
78717;BME280;68045;50.042;14.432;2023-04-03T21:51:25;99326.06;;;2.67;51.22
78717;BME280;68045;50.042;14.432;2023-04-03T21:55:27;99329.63;;;2.66;49.91
78717;BME280;68045;50.042;14.432;2023-04-03T21:59:29;99330.00;;;2.71;49.51
78717;BME280;68045;50.042;14.432;2023-04-03T22:03:30;99338.63;;;2.72;49.40
78717;BME280;68045;50.042;14.432;2023-04-03T22:07:34;99331.47;;;2.74;49.52
78717;BME280;68045;50.042;14.432;2023-04-03T22:11:35;99328.25;;;2.80;48.60
78717;BME280;68045;50.042;14.432;2023-04-03T22:15:39;99331.06;;;2.87;49.14
78717;BME280;68045;50.042;14.432;2023-04-03T22:19:43;99336.66;;;2.92;48.71
78717;BME280;68045;50.042;14.432;2023-04-03T22:23:44;99326.59;;;2.97;48.98
78717;BME280;68045;50.042;14.432;2023-04-03T22:27:45;99323.03;;;3.06;49.56
78717;BME280;68045;50.042;14.432;2023-04-03T22:31:46;99321.59;;;3.12;48.66
78717;BME280;68045;50.042;14.432;2023-04-03T22:35:48;99325.38;;;3.17;48.76
78717;BME280;68045;50.042;14.432;2023-04-03T22:39:49;99325.72;;;3.22;49.45
78717;BME280;68045;50.042;14.432;2023-04-03T22:43:50;99322.13;;;3.23;48.81
78717;BME280;68045;50.042;14.432;2023-04-03T22:47:51;99320.00;;;3.19;47.66
78717;BME280;68045;50.042;14.432;2023-04-03T22:51:52;99320.25;;;3.08;47.97
78717;BME280;68045;50.042;14.432;2023-04-03T22:55:57;99314.03;;;3.00;48.65
78717;BME280;68045;50.042;14.432;2023-04-03T22:59:58;99317.09;;;2.96;48.85
78717;BME280;68045;50.042;14.432;2023-04-03T23:03:59;99314.50;;;2.96;48.59
78717;BME280;68045;50.042;14.432;2023-04-03T23:08:00;99308.97;;;2.99;48.63
78717;BME280;68045;50.042;14.432;2023-04-03T23:12:01;99299.38;;;2.99;48.98
78717;BME280;68045;50.042;14.432;2023-04-03T23:16:02;99303.97;;;3.06;49.91
78717;BME280;68045;50.042;14.432;2023-04-03T23:20:04;99294.84;;;3.10;50.74
78717;BME280;68045;50.042;14.432;2023-04-03T23:24:05;99294.03;;;3.09;50.88
78717;BME280;68045;50.042;14.432;2023-04-03T23:28:06;99287.38;;;3.15;51.04
78717;BME280;68045;50.042;14.432;2023-04-03T23:32:07;99293.25;;;3.17;51.11
78717;BME280;68045;50.042;14.432;2023-04-03T23:36:08;99293.91;;;3.19;51.38